sensor_id;sensor_type;location;lat;lon;timestamp;pressure;altitude;pressure_sealevel;temperature;humidity
23619;BME280;18207;32.078;34.818;2023-04-23T00:02:21;100546.13;;;26.28;43.58
23619;BME280;18207;32.078;34.818;2023-04-23T00:04:56;100537.66;;;26.28;43.58
23619;BME280;18207;32.078;34.818;2023-04-23T00:07:36;100534.84;;;26.28;43.57
23619;BME280;18207;32.078;34.818;2023-04-23T00:10:09;100537.22;;;26.26;43.82
23619;BME280;18207;32.078;34.818;2023-04-23T00:12:40;100529.97;;;26.25;43.54
23619;BME280;18207;32.078;34.818;2023-04-23T00:15:13;100529.53;;;26.23;43.63
23619;BME280;18207;32.078;34.818;2023-04-23T00:17:43;100540.34;;;26.21;43.75
23619;BME280;18207;32.078;34.818;2023-04-23T00:20:18;100536.72;;;26.21;43.56
23619;BME280;18207;32.078;34.818;2023-04-23T00:22:50;100537.53;;;26.21;43.77
23619;BME280;18207;32.078;34.818;2023-04-23T00:25:20;100531.09;;;26.21;43.78
23619;BME280;18207;32.078;34.818;2023-04-23T00:27:50;100523.84;;;26.20;43.54
23619;BME280;18207;32.078;34.818;2023-04-23T00:30:20;100531.47;;;26.19;43.71
23619;BME280;18207;32.078;34.818;2023-04-23T00:32:51;100535.09;;;26.20;43.81
23619;BME280;18207;32.078;34.818;2023-04-23T00:35:21;100521.03;;;26.20;43.60
23619;BME280;18207;32.078;34.818;2023-04-23T00:37:53;100526.25;;;26.21;43.75
23619;BME280;18207;32.078;34.818;2023-04-23T00:40:23;100530.28;;;26.20;44.00
23619;BME280;18207;32.078;34.818;2023-04-23T00:42:55;100535.09;;;26.20;43.84
23619;BME280;18207;32.078;34.818;2023-04-23T00:45:25;100526.66;;;26.20;43.81
23619;BME280;18207;32.078;34.818;2023-04-23T00:47:56;100524.63;;;26.20;43.86
23619;BME280;18207;32.078;34.818;2023-04-23T00:50:27;100522.66;;;26.21;43.89
23619;BME280;18207;32.078;34.818;2023-04-23T00:52:59;100531.09;;;26.21;44.00
23619;BME280;18207;32.078;34.818;2023-04-23T00:55:29;100519.00;;;26.20;43.83
23619;BME280;18207;32.078;34.818;2023-04-23T00:57:59;100531.09;;;26.21;43.92
23619;BME280;18207;32.078;34.818;2023-04-23T01:00:30;100532.28;;;26.20;44.07
23619;BME280;18207;32.078;34.818;2023-04-23T01:03:00;100523.00;;;26.19;43.94
23619;BME280;18207;32.078;34.818;2023-04-23T01:05:31;100527.03;;;26.18;43.97
23619;BME280;18207;32.078;34.818;2023-04-23T01:08:03;100528.66;;;26.19;44.03
23619;BME280;18207;32.078;34.818;2023-04-23T01:10:33;100520.59;;;26.18;44.07
23619;BME280;18207;32.078;34.818;2023-04-23T01:13:04;100528.22;;;26.17;43.97
23619;BME280;18207;32.078;34.818;2023-04-23T01:15:34;100531.06;;;26.17;43.80
23619;BME280;18207;32.078;34.818;2023-04-23T01:18:04;100531.84;;;26.18;43.87
23619;BME280;18207;32.078;34.818;2023-04-23T01:20:35;100531.06;;;26.17;43.97
23619;BME280;18207;32.078;34.818;2023-04-23T01:23:08;100530.22;;;26.17;43.95
23619;BME280;18207;32.078;34.818;2023-04-23T01:25:38;100525.78;;;26.16;43.81
23619;BME280;18207;32.078;34.818;2023-04-23T01:28:08;100520.13;;;26.16;44.14
23619;BME280;18207;32.078;34.818;2023-04-23T01:30:40;100526.97;;;26.15;43.99
23619;BME280;18207;32.078;34.818;2023-04-23T01:33:11;100524.53;;;26.13;44.02
23619;BME280;18207;32.078;34.818;2023-04-23T01:35:42;100518.91;;;26.13;43.94
23619;BME280;18207;32.078;34.818;2023-04-23T01:38:16;100510.00;;;26.11;43.86
23619;BME280;18207;32.078;34.818;2023-04-23T01:40:47;100498.75;;;26.11;43.94
23619;BME280;18207;32.078;34.818;2023-04-23T01:43:17;100501.56;;;26.11;44.00
23619;BME280;18207;32.078;34.818;2023-04-23T01:45:48;100496.75;;;26.12;44.00
23619;BME280;18207;32.078;34.818;2023-04-23T01:48:18;100510.00;;;26.11;43.84
23619;BME280;18207;32.078;34.818;2023-04-23T01:50:50;100514.00;;;26.10;44.01
23619;BME280;18207;32.078;34.818;2023-04-23T01:53:22;100512.38;;;26.09;44.12
23619;BME280;18207;32.078;34.818;2023-04-23T01:55:54;100516.84;;;26.10;44.00
23619;BME280;18207;32.078;34.818;2023-04-23T01:58:24;100526.84;;;26.08;43.90
23619;BME280;18207;32.078;34.818;2023-04-23T02:00:55;100521.63;;;26.06;43.82
23619;BME280;18207;32.078;34.818;2023-04-23T02:03:25;100518.34;;;26.04;43.82
23619;BME280;18207;32.078;34.818;2023-04-23T02:05:55;100517.91;;;26.02;43.82
23619;BME280;18207;32.078;34.818;2023-04-23T02:08:29;100523.09;;;26.00;43.94
23619;BME280;18207;32.078;34.818;2023-04-23T02:10:59;100517.06;;;25.98;43.89
23619;BME280;18207;32.078;34.818;2023-04-23T02:13:29;100519.44;;;25.97;43.62
23619;BME280;18207;32.078;34.818;2023-04-23T02:16:00;100528.25;;;25.95;43.92
23619;BME280;18207;32.078;34.818;2023-04-23T02:18:30;100529.47;;;25.94;43.88
23619;BME280;18207;32.078;34.818;2023-04-23T02:21:00;100529.81;;;25.93;43.80
23619;BME280;18207;32.078;34.818;2023-04-23T02:23:33;100528.19;;;25.92;43.95
23619;BME280;18207;32.078;34.818;2023-04-23T02:26:03;100533.81;;;25.92;43.74
23619;BME280;18207;32.078;34.818;2023-04-23T02:28:35;100531.41;;;25.90;43.99
23619;BME280;18207;32.078;34.818;2023-04-23T02:31:09;100536.19;;;25.90;44.00
23619;BME280;18207;32.078;34.818;2023-04-23T02:33:39;100534.22;;;25.90;44.08
23619;BME280;18207;32.078;34.818;2023-04-23T02:36:10;100531.78;;;25.89;43.91
23619;BME280;18207;32.078;34.818;2023-04-23T02:38:42;100531.78;;;25.89;43.90
23619;BME280;18207;32.078;34.818;2023-04-23T02:41:12;100526.94;;;25.89;44.02
23619;BME280;18207;32.078;34.818;2023-04-23T02:43:42;100528.13;;;25.88;44.07
23619;BME280;18207;32.078;34.818;2023-04-23T02:46:12;100537.41;;;25.89;44.12
23619;BME280;18207;32.078;34.818;2023-04-23T02:48:43;100535.41;;;25.89;43.92
23619;BME280;18207;32.078;34.818;2023-04-23T02:51:13;100530.56;;;25.90;43.84
23619;BME280;18207;32.078;34.818;2023-04-23T02:53:46;100523.34;;;25.89;43.77
23619;BME280;18207;32.078;34.818;2023-04-23T02:56:16;100517.69;;;25.89;44.11
23619;BME280;18207;32.078;34.818;2023-04-23T02:58:47;100521.69;;;25.88;43.98
23619;BME280;18207;32.078;34.818;2023-04-23T03:01:17;100521.69;;;25.88;43.92
23619;BME280;18207;32.078;34.818;2023-04-23T03:03:48;100523.69;;;25.87;44.01
23619;BME280;18207;32.078;34.818;2023-04-23T03:06:18;100522.88;;;25.87;43.97
23619;BME280;18207;32.078;34.818;2023-04-23T03:08:49;100525.69;;;25.87;43.96
23619;BME280;18207;32.078;34.818;2023-04-23T03:11:19;100510.78;;;25.86;44.02
23619;BME280;18207;32.078;34.818;2023-04-23T03:13:50;100516.44;;;25.86;43.96
23619;BME280;18207;32.078;34.818;2023-04-23T03:16:20;100520.06;;;25.87;43.98
23619;BME280;18207;32.078;34.818;2023-04-23T03:18:50;100524.88;;;25.86;43.93
23619;BME280;18207;32.078;34.818;2023-04-23T03:21:20;100526.06;;;25.85;44.01
23619;BME280;18207;32.078;34.818;2023-04-23T03:23:52;100531.28;;;25.83;43.81
23619;BME280;18207;32.078;34.818;2023-04-23T03:26:22;100535.63;;;25.81;44.08
23619;BME280;18207;32.078;34.818;2023-04-23T03:28:52;100536.81;;;25.80;43.91
23619;BME280;18207;32.078;34.818;2023-04-23T03:31:21;100542.84;;;25.78;43.80
23619;BME280;18207;32.078;34.818;2023-04-23T03:33:51;100540.41;;;25.77;44.02
23619;BME280;18207;32.078;34.818;2023-04-23T03:36:22;100546.84;;;25.77;44.13
23619;BME280;18207;32.078;34.818;2023-04-23T03:38:53;100539.22;;;25.78;44.24
23619;BME280;18207;32.078;34.818;2023-04-23T03:41:23;100538.41;;;25.77;44.36
23619;BME280;18207;32.078;34.818;2023-04-23T03:43:54;100535.59;;;25.77;44.13
23619;BME280;18207;32.078;34.818;2023-04-23T03:46:24;100533.59;;;25.78;44.07
23619;BME280;18207;32.078;34.818;2023-04-23T03:48:54;100518.69;;;25.77;44.16
23619;BME280;18207;32.078;34.818;2023-04-23T03:51:24;100527.97;;;25.78;44.18
23619;BME280;18207;32.078;34.818;2023-04-23T03:53:57;100536.41;;;25.78;44.11
23619;BME280;18207;32.078;34.818;2023-04-23T03:56:26;100538.41;;;25.77;44.10
23619;BME280;18207;32.078;34.818;2023-04-23T03:58:57;100538.03;;;25.79;44.23
23619;BME280;18207;32.078;34.818;2023-04-23T04:01:27;100540.03;;;25.78;44.32
23619;BME280;18207;32.078;34.818;2023-04-23T04:03:57;100547.28;;;25.79;44.24
23619;BME280;18207;32.078;34.818;2023-04-23T04:06:28;100539.22;;;25.78;44.08
23619;BME280;18207;32.078;34.818;2023-04-23T04:09:00;100552.13;;;25.79;44.09
23619;BME280;18207;32.078;34.818;2023-04-23T04:11:29;100542.03;;;25.78;44.15
23619;BME280;18207;32.078;34.818;2023-04-23T04:13:59;100533.94;;;25.76;44.20
23619;BME280;18207;32.078;34.818;2023-04-23T04:16:29;100535.59;;;25.77;44.11
23619;BME280;18207;32.078;34.818;2023-04-23T04:19:00;100533.94;;;25.76;44.36
23619;BME280;18207;32.078;34.818;2023-04-23T04:21:30;100539.94;;;25.75;44.14
23619;BME280;18207;32.078;34.818;2023-04-23T04:24:03;100541.56;;;25.76;44.28
23619;BME280;18207;32.078;34.818;2023-04-23T04:26:33;100533.50;;;25.74;44.19
23619;BME280;18207;32.078;34.818;2023-04-23T04:29:04;100527.88;;;25.74;44.31
23619;BME280;18207;32.078;34.818;2023-04-23T04:31:34;100540.31;;;25.73;44.22
23619;BME280;18207;32.078;34.818;2023-04-23T04:34:05;100531.88;;;25.73;44.34
23619;BME280;18207;32.078;34.818;2023-04-23T04:36:37;100535.09;;;25.75;44.31
23619;BME280;18207;32.078;34.818;2023-04-23T04:39:10;100542.03;;;25.78;44.45
23619;BME280;18207;32.078;34.818;2023-04-23T04:41:40;100547.28;;;25.79;44.53
23619;BME280;18207;32.078;34.818;2023-04-23T04:44:11;100553.81;;;25.83;44.43
23619;BME280;18207;32.078;34.818;2023-04-23T04:46:43;100551.41;;;25.85;44.48
23619;BME280;18207;32.078;34.818;2023-04-23T04:49:14;100545.41;;;25.87;44.57
23619;BME280;18207;32.078;34.818;2023-04-23T04:51:46;100533.38;;;25.90;44.56
23619;BME280;18207;32.078;34.818;2023-04-23T04:54:18;100535.44;;;25.93;44.66
23619;BME280;18207;32.078;34.818;2023-04-23T04:56:49;100540.34;;;25.96;44.54
23619;BME280;18207;32.078;34.818;2023-04-23T04:59:18;100545.22;;;25.98;44.63
23619;BME280;18207;32.078;34.818;2023-04-23T05:01:49;100553.72;;;26.02;44.81
23619;BME280;18207;32.078;34.818;2023-04-23T05:04:19;100553.78;;;26.05;44.75
23619;BME280;18207;32.078;34.818;2023-04-23T05:06:49;100556.28;;;26.10;44.75
23619;BME280;18207;32.078;34.818;2023-04-23T05:09:21;100563.22;;;26.16;44.86
23619;BME280;18207;32.078;34.818;2023-04-23T05:11:51;100553.63;;;26.21;44.73
23619;BME280;18207;32.078;34.818;2023-04-23T05:14:21;100555.31;;;26.25;44.84
23619;BME280;18207;32.078;34.818;2023-04-23T05:16:53;100564.63;;;26.29;44.77
23619;BME280;18207;32.078;34.818;2023-04-23T05:19:23;100562.31;;;26.35;44.99
23619;BME280;18207;32.078;34.818;2023-04-23T05:21:53;100568.47;;;26.40;44.99
23619;BME280;18207;32.078;34.818;2023-04-23T05:24:25;100554.84;;;26.46;44.91
23619;BME280;18207;32.078;34.818;2023-04-23T05:26:55;100560.97;;;26.51;45.02
23619;BME280;18207;32.078;34.818;2023-04-23T05:29:25;100568.28;;;26.56;44.99
23619;BME280;18207;32.078;34.818;2023-04-23T05:31:56;100571.59;;;26.61;44.93
23619;BME280;18207;32.078;34.818;2023-04-23T05:34:26;100579.31;;;26.64;44.84
23619;BME280;18207;32.078;34.818;2023-04-23T05:36:56;100581.72;;;26.66;44.86
23619;BME280;18207;32.078;34.818;2023-04-23T05:39:28;100578.16;;;26.69;44.51
23619;BME280;18207;32.078;34.818;2023-04-23T05:41:58;100572.13;;;26.70;44.69
23619;BME280;18207;32.078;34.818;2023-04-23T05:44:29;100571.38;;;26.73;44.68
23619;BME280;18207;32.078;34.818;2023-04-23T05:46:59;100577.91;;;26.77;44.70
23619;BME280;18207;32.078;34.818;2023-04-23T05:49:29;100587.19;;;26.81;44.88
23619;BME280;18207;32.078;34.818;2023-04-23T05:51:59;100591.69;;;26.85;44.92
23619;BME280;18207;32.078;34.818;2023-04-23T05:54:31;100599.84;;;26.90;44.69
23619;BME280;18207;32.078;34.818;2023-04-23T05:57:01;100611.16;;;26.94;44.82
23619;BME280;18207;32.078;34.818;2023-04-23T05:59:33;100628.94;;;26.98;44.63
23619;BME280;18207;32.078;34.818;2023-04-23T06:02:03;100615.72;;;27.02;44.78
23619;BME280;18207;32.078;34.818;2023-04-23T06:04:33;100627.06;;;27.05;44.84
23619;BME280;18207;32.078;34.818;2023-04-23T06:07:04;100626.31;;;27.08;44.69
23619;BME280;18207;32.078;34.818;2023-04-23T06:09:37;100633.63;;;27.13;44.61
23619;BME280;18207;32.078;34.818;2023-04-23T06:12:09;100637.28;;;27.17;45.03
23619;BME280;18207;32.078;34.818;2023-04-23T06:14:39;100635.34;;;27.21;44.69
23619;BME280;18207;32.078;34.818;2023-04-23T06:17:10;100634.56;;;27.24;44.45
23619;BME280;18207;32.078;34.818;2023-04-23T06:19:40;100626.94;;;27.28;44.66
23619;BME280;18207;32.078;34.818;2023-04-23T06:22:10;100633.47;;;27.32;44.78
23619;BME280;18207;32.078;34.818;2023-04-23T06:24:42;100635.94;;;27.37;44.57
23619;BME280;18207;32.078;34.818;2023-04-23T06:27:13;100649.28;;;27.40;44.79
23619;BME280;18207;32.078;34.818;2023-04-23T06:29:43;100655.00;;;27.47;44.54
23619;BME280;18207;32.078;34.818;2023-04-23T06:32:13;100657.09;;;27.50;44.55
23619;BME280;18207;32.078;34.818;2023-04-23T06:34:46;100653.50;;;27.53;44.74
23619;BME280;18207;32.078;34.818;2023-04-23T06:37:27;100654.34;;;27.57;44.46
23619;BME280;18207;32.078;34.818;2023-04-23T06:40:00;100645.94;;;27.60;44.70
23619;BME280;18207;32.078;34.818;2023-04-23T06:42:29;100656.47;;;27.63;44.41
23619;BME280;18207;32.078;34.818;2023-04-23T06:44:59;100638.75;;;27.66;44.26
23619;BME280;18207;32.078;34.818;2023-04-23T06:47:33;100645.63;;;27.69;44.66
23619;BME280;18207;32.078;34.818;2023-04-23T06:50:03;100645.69;;;27.72;44.04
23619;BME280;18207;32.078;34.818;2023-04-23T06:52:34;100641.69;;;27.76;44.29
23619;BME280;18207;32.078;34.818;2023-04-23T06:55:09;100636.47;;;27.78;44.50
23619;BME280;18207;32.078;34.818;2023-04-23T06:57:39;100644.56;;;27.80;44.21
23619;BME280;18207;32.078;34.818;2023-04-23T07:00:12;100642.16;;;27.82;44.22
23619;BME280;18207;32.078;34.818;2023-04-23T07:02:42;100639.38;;;27.85;44.26
23619;BME280;18207;32.078;34.818;2023-04-23T07:05:13;100641.81;;;27.87;44.28
23619;BME280;18207;32.078;34.818;2023-04-23T07:07:43;100651.13;;;27.91;44.32
23619;BME280;18207;32.078;34.818;2023-04-23T07:10:14;100642.72;;;27.94;44.25
23619;BME280;18207;32.078;34.818;2023-04-23T07:12:45;100639.91;;;27.98;44.23
23619;BME280;18207;32.078;34.818;2023-04-23T07:15:15;100637.94;;;28.02;44.31
23619;BME280;18207;32.078;34.818;2023-04-23T07:17:45;100629.91;;;28.07;44.21
23619;BME280;18207;32.078;34.818;2023-04-23T07:20:15;100616.63;;;28.11;44.32
23619;BME280;18207;32.078;34.818;2023-04-23T07:22:46;100608.97;;;28.15;44.37
23619;BME280;18207;32.078;34.818;2023-04-23T07:25:17;100621.94;;;28.20;44.38
23619;BME280;18207;32.078;34.818;2023-04-23T07:27:49;100624.03;;;28.23;44.09
23619;BME280;18207;32.078;34.818;2023-04-23T07:30:22;100637.00;;;28.27;44.08
23619;BME280;18207;32.078;34.818;2023-04-23T07:32:53;100625.72;;;28.31;44.28
23619;BME280;18207;32.078;34.818;2023-04-23T07:35:24;100630.59;;;28.34;44.45
23619;BME280;18207;32.078;34.818;2023-04-23T07:37:54;100635.47;;;28.37;44.05
23619;BME280;18207;32.078;34.818;2023-04-23T07:40:27;100641.94;;;28.41;43.86
23619;BME280;18207;32.078;34.818;2023-04-23T07:42:57;100646.84;;;28.44;43.95
23619;BME280;18207;32.078;34.818;2023-04-23T07:45:28;100653.72;;;28.46;43.94
23619;BME280;18207;32.078;34.818;2023-04-23T07:47:57;100658.16;;;28.47;43.86
23619;BME280;18207;32.078;34.818;2023-04-23T07:50:29;100649.31;;;28.49;43.95
23619;BME280;18207;32.078;34.818;2023-04-23T07:52:59;100649.72;;;28.51;43.63
23619;BME280;18207;32.078;34.818;2023-04-23T07:55:32;100651.34;;;28.52;43.82
23619;BME280;18207;32.078;34.818;2023-04-23T07:58:02;100663.47;;;28.52;43.52
23619;BME280;18207;32.078;34.818;2023-04-23T08:00:33;100673.59;;;28.53;43.71
23619;BME280;18207;32.078;34.818;2023-04-23T08:03:03;100679.25;;;28.53;43.53
23619;BME280;18207;32.078;34.818;2023-04-23T08:05:33;100673.19;;;28.55;43.62
23619;BME280;18207;32.078;34.818;2023-04-23T08:08:04;100673.97;;;28.55;43.49
23619;BME280;18207;32.078;34.818;2023-04-23T08:10:36;100670.34;;;28.55;43.19
23619;BME280;18207;32.078;34.818;2023-04-23T08:13:06;100666.34;;;28.56;43.19
23619;BME280;18207;32.078;34.818;2023-04-23T08:15:37;100655.03;;;28.56;43.36
23619;BME280;18207;32.078;34.818;2023-04-23T08:18:07;100660.28;;;28.57;43.53
23619;BME280;18207;32.078;34.818;2023-04-23T08:20:37;100659.06;;;28.58;43.31
23619;BME280;18207;32.078;34.818;2023-04-23T08:23:07;100665.94;;;28.61;43.37
23619;BME280;18207;32.078;34.818;2023-04-23T08:25:39;100667.56;;;28.62;43.57
23619;BME280;18207;32.078;34.818;2023-04-23T08:28:09;100667.22;;;28.63;43.69
23619;BME280;18207;32.078;34.818;2023-04-23T08:30:39;100663.16;;;28.64;43.58
23619;BME280;18207;32.078;34.818;2023-04-23T08:33:09;100672.06;;;28.66;43.25
23619;BME280;18207;32.078;34.818;2023-04-23T08:35:40;100670.06;;;28.66;43.14
23619;BME280;18207;32.078;34.818;2023-04-23T08:38:10;100662.38;;;28.67;42.95
23619;BME280;18207;32.078;34.818;2023-04-23T08:40:44;100669.66;;;28.68;43.22
23619;BME280;18207;32.078;34.818;2023-04-23T08:43:18;100675.72;;;28.66;43.22
23619;BME280;18207;32.078;34.818;2023-04-23T08:45:49;100668.03;;;28.67;42.97
23619;BME280;18207;32.078;34.818;2023-04-23T08:48:20;100665.19;;;28.67;43.17
23619;BME280;18207;32.078;34.818;2023-04-23T08:50:50;100659.13;;;28.68;43.28
23619;BME280;18207;32.078;34.818;2023-04-23T08:53:24;100664.44;;;28.70;43.08
23619;BME280;18207;32.078;34.818;2023-04-23T08:55:58;100658.78;;;28.70;43.00
23619;BME280;18207;32.078;34.818;2023-04-23T08:58:29;100664.84;;;28.72;43.14
23619;BME280;18207;32.078;34.818;2023-04-23T09:00:59;100661.63;;;28.73;42.78
23619;BME280;18207;32.078;34.818;2023-04-23T09:03:30;100662.03;;;28.75;43.12
23619;BME280;18207;32.078;34.818;2023-04-23T09:06:01;100647.50;;;28.77;42.98
23619;BME280;18207;32.078;34.818;2023-04-23T09:08:32;100654.38;;;28.79;43.33
23619;BME280;18207;32.078;34.818;2023-04-23T09:11:05;100653.19;;;28.80;43.33
23619;BME280;18207;32.078;34.818;2023-04-23T09:13:35;100650.00;;;28.82;43.16
23619;BME280;18207;32.078;34.818;2023-04-23T09:16:08;100652.03;;;28.85;42.76
23619;BME280;18207;32.078;34.818;2023-04-23T09:18:39;100651.66;;;28.86;43.31
23619;BME280;18207;32.078;34.818;2023-04-23T09:21:11;100643.19;;;28.90;43.37
23619;BME280;18207;32.078;34.818;2023-04-23T09:23:42;100647.22;;;28.92;42.86
23619;BME280;18207;32.078;34.818;2023-04-23T09:26:19;100647.25;;;28.96;43.17
23619;BME280;18207;32.078;34.818;2023-04-23T09:28:50;100644.44;;;28.99;42.69
23619;BME280;18207;32.078;34.818;2023-04-23T09:31:21;100652.94;;;29.03;43.39
23619;BME280;18207;32.078;34.818;2023-04-23T09:33:53;100647.31;;;29.06;42.84
23619;BME280;18207;32.078;34.818;2023-04-23T09:36:24;100642.06;;;29.08;43.07
23619;BME280;18207;32.078;34.818;2023-04-23T09:38:57;100640.06;;;29.12;43.05
23619;BME280;18207;32.078;34.818;2023-04-23T09:41:29;100633.63;;;29.15;42.86
23619;BME280;18207;32.078;34.818;2023-04-23T09:43:59;100633.63;;;29.15;42.67
23619;BME280;18207;32.078;34.818;2023-04-23T09:46:34;100627.97;;;29.19;42.48
23619;BME280;18207;32.078;34.818;2023-04-23T09:49:06;100627.56;;;29.20;42.65
23619;BME280;18207;32.078;34.818;2023-04-23T09:51:38;100626.38;;;29.21;42.79
23619;BME280;18207;32.078;34.818;2023-04-23T09:54:12;100621.13;;;29.23;42.27
23619;BME280;18207;32.078;34.818;2023-04-23T09:56:49;100612.22;;;29.25;42.88
23619;BME280;18207;32.078;34.818;2023-04-23T09:59:23;100609.38;;;29.25;42.32
23619;BME280;18207;32.078;34.818;2023-04-23T10:02:13;100606.56;;;29.25;42.86
23619;BME280;18207;32.078;34.818;2023-04-23T10:04:49;100608.59;;;29.28;42.55
23619;BME280;18207;32.078;34.818;2023-04-23T10:07:34;100612.63;;;29.27;42.97
23619;BME280;18207;32.078;34.818;2023-04-23T10:10:07;100607.41;;;29.29;42.43
23619;BME280;18207;32.078;34.818;2023-04-23T10:12:39;100609.81;;;29.30;42.44
23619;BME280;18207;32.078;34.818;2023-04-23T10:15:24;100617.09;;;29.31;42.70
23619;BME280;18207;32.078;34.818;2023-04-23T10:17:55;100612.28;;;29.32;42.86
23619;BME280;18207;32.078;34.818;2023-04-23T10:20:26;100614.28;;;29.35;42.35
23619;BME280;18207;32.078;34.818;2023-04-23T10:22:57;100602.53;;;29.33;42.50
23619;BME280;18207;32.078;34.818;2023-04-23T10:25:30;100614.28;;;29.35;42.37
23619;BME280;18207;32.078;34.818;2023-04-23T10:28:03;100607.41;;;29.36;42.15
23619;BME280;18207;32.078;34.818;2023-04-23T10:30:35;100610.25;;;29.36;42.36
23619;BME280;18207;32.078;34.818;2023-04-23T10:33:07;100610.69;;;29.38;42.40
23619;BME280;18207;32.078;34.818;2023-04-23T10:35:56;100609.88;;;29.37;42.42
23619;BME280;18207;32.078;34.818;2023-04-23T10:38:27;100604.63;;;29.39;42.20
23619;BME280;18207;32.078;34.818;2023-04-23T10:41:00;100582.81;;;29.40;42.63
23619;BME280;18207;32.078;34.818;2023-04-23T10:43:32;100588.06;;;29.41;42.19
23619;BME280;18207;32.078;34.818;2023-04-23T10:46:02;100589.69;;;29.42;42.28
23619;BME280;18207;32.078;34.818;2023-04-23T10:49:05;100579.16;;;29.43;42.60
23619;BME280;18207;32.078;34.818;2023-04-23T10:51:36;100577.16;;;29.43;42.52
23619;BME280;18207;32.078;34.818;2023-04-23T10:54:09;100586.44;;;29.44;42.34
23619;BME280;18207;32.078;34.818;2023-04-23T10:56:40;100582.41;;;29.45;42.24
23619;BME280;18207;32.078;34.818;2023-04-23T10:59:31;100581.19;;;29.46;42.30
23619;BME280;18207;32.078;34.818;2023-04-23T11:02:07;100590.88;;;29.45;41.69
23619;BME280;18207;32.078;34.818;2023-04-23T11:04:44;100576.72;;;29.45;41.88
23619;BME280;18207;32.078;34.818;2023-04-23T11:07:18;100579.56;;;29.45;42.20
23619;BME280;18207;32.078;34.818;2023-04-23T11:09:49;100579.97;;;29.43;42.27
23619;BME280;18207;32.078;34.818;2023-04-23T11:12:31;100575.53;;;29.42;41.85
23619;BME280;18207;32.078;34.818;2023-04-23T11:15:12;100562.16;;;29.43;41.79
23619;BME280;18207;32.078;34.818;2023-04-23T11:17:59;100556.50;;;29.43;42.00
23619;BME280;18207;32.078;34.818;2023-04-23T11:20:30;100552.06;;;29.42;42.26
23619;BME280;18207;32.078;34.818;2023-04-23T11:23:01;100550.44;;;29.41;41.68
23619;BME280;18207;32.078;34.818;2023-04-23T11:25:36;100555.69;;;29.42;41.94
23619;BME280;18207;32.078;34.818;2023-04-23T11:28:08;100542.75;;;29.41;41.89
23619;BME280;18207;32.078;34.818;2023-04-23T11:30:40;100550.81;;;29.43;41.88
23619;BME280;18207;32.078;34.818;2023-04-23T11:33:11;100552.84;;;29.42;41.76
23619;BME280;18207;32.078;34.818;2023-04-23T11:35:41;100557.31;;;29.43;41.80
23619;BME280;18207;32.078;34.818;2023-04-23T11:38:11;100555.69;;;29.42;41.86
23619;BME280;18207;32.078;34.818;2023-04-23T11:40:45;100563.78;;;29.44;42.00
23619;BME280;18207;32.078;34.818;2023-04-23T11:43:18;100561.78;;;29.44;41.99
23619;BME280;18207;32.078;34.818;2023-04-23T11:45:51;100562.56;;;29.45;41.75
23619;BME280;18207;32.078;34.818;2023-04-23T11:48:20;100558.13;;;29.44;42.08
23619;BME280;18207;32.078;34.818;2023-04-23T11:50:52;100564.19;;;29.46;41.69
23619;BME280;18207;32.078;34.818;2023-04-23T11:53:22;100553.28;;;29.44;41.83
23619;BME280;18207;32.078;34.818;2023-04-23T11:55:53;100551.66;;;29.43;41.53
23619;BME280;18207;32.078;34.818;2023-04-23T11:58:23;100560.94;;;29.44;42.12
23619;BME280;18207;32.078;34.818;2023-04-23T12:00:59;100557.72;;;29.42;41.78
23619;BME280;18207;32.078;34.818;2023-04-23T12:03:29;100555.69;;;29.42;41.79
23619;BME280;18207;32.078;34.818;2023-04-23T12:05:59;100565.41;;;29.41;42.10
23619;BME280;18207;32.078;34.818;2023-04-23T12:08:33;100565.41;;;29.41;41.56
23619;BME280;18207;32.078;34.818;2023-04-23T12:11:04;100560.94;;;29.40;41.52
23619;BME280;18207;32.078;34.818;2023-04-23T12:13:34;100560.16;;;29.40;41.94
23619;BME280;18207;32.078;34.818;2023-04-23T12:16:06;100562.97;;;29.40;41.70
23619;BME280;18207;32.078;34.818;2023-04-23T12:18:40;100565.81;;;29.40;41.71
23619;BME280;18207;32.078;34.818;2023-04-23T12:21:12;100566.19;;;29.38;41.56
23619;BME280;18207;32.078;34.818;2023-04-23T12:23:42;100569.84;;;29.39;41.49
23619;BME280;18207;32.078;34.818;2023-04-23T12:26:15;100576.31;;;29.39;41.54
23619;BME280;18207;32.078;34.818;2023-04-23T12:28:48;100562.56;;;29.38;41.35
23619;BME280;18207;32.078;34.818;2023-04-23T12:31:22;100558.06;;;29.37;41.59
23619;BME280;18207;32.078;34.818;2023-04-23T12:34:02;100562.56;;;29.38;41.51
23619;BME280;18207;32.078;34.818;2023-04-23T12:36:33;100559.28;;;29.36;41.63
23619;BME280;18207;32.078;34.818;2023-04-23T12:39:22;100566.97;;;29.35;41.53
23619;BME280;18207;32.078;34.818;2023-04-23T12:41:55;100567.75;;;29.32;41.53
23619;BME280;18207;32.078;34.818;2023-04-23T12:44:27;100562.50;;;29.31;41.42
23619;BME280;18207;32.078;34.818;2023-04-23T12:47:01;100556.84;;;29.31;41.84
23619;BME280;18207;32.078;34.818;2023-04-23T12:49:33;100556.44;;;29.29;41.64
23619;BME280;18207;32.078;34.818;2023-04-23T12:52:05;100555.22;;;29.26;41.30
23619;BME280;18207;32.078;34.818;2023-04-23T12:54:40;100571.38;;;29.26;41.10
23619;BME280;18207;32.078;34.818;2023-04-23T12:57:12;100569.34;;;29.23;41.42
23619;BME280;18207;32.078;34.818;2023-04-23T12:59:42;100564.50;;;29.23;41.17
23619;BME280;18207;32.078;34.818;2023-04-23T13:02:15;100567.34;;;29.23;41.59
23619;BME280;18207;32.078;34.818;2023-04-23T13:04:45;100554.78;;;29.21;41.12